Airfield :
LOGIN :

Register | Disclaimer

   EN    FR    IT 

 










Legend :    VFR   Marginal VFR   IFR   Intensive IFR   Very Intensive IFR
Visi :
Ceiling :
>= 8 km
>= 3000ft
5 to 8 km
1000 to 3000 ft
1500m to 5 km
500 to 1000 ft
800 to 1500m
200 to 500 ft
< 800m
< 200 ft
Symbols :   Thunderstorms  Fog  Heavy snow  Heavy precipitations  Wind > 20 kt
SIGMETs :     Misc.  Thunderstorms  Icing  Turbulence  Mountain Waves  Volcanic Ashes






- Airport Elevation : -13 ft
- IATA code : LEY


EHLE - Lelystad

CURRENT METAR :
  • 170255Z AUTO 18007KT 3100 -DZ BKN003 FEW015CB 00/M00 Q1014 REFZ RERA REDZ

EXPIRED METARs :
  • 170225Z AUTO 17008KT 3000 BR BKN003 OVC005 00/M00 Q1014 REFZDZ
  • 170155Z AUTO 18007KT 2600 -FZUP BKN003 OVC004 00/M00 Q1014
  • 170125Z AUTO 19007KT 2500 BR BKN003 OVC004 M00/M00 Q1014
  • 170055Z AUTO 18008KT 2600 BR OVC003 M00/M01 Q1014
  • 170025Z AUTO 18007KT 3800 BR OVC004 M00/M01 Q1014

TAF TAF EHLE
Valid from the 17 at 00:00 until the 18 at 06:00 UTC


162319Z 1700/1806 17010KT 4000 BR -DZ BKN007
TEMPO 1700/1708 2000 DZ BKN004
PROB30
TEMPO 1701/1704 -FZDZ BKN002
BECMG 1706/1709 30010KT 9999 NSW SCT025
PROB30
TEMPO 1708/1716 7000 -SHRA SCT020TCU BKN025
BECMG 1719/1722 27006KT
PROB30 1804/1806 6000 BKN009



MET'MAP, your aeronautical weather chart ! - Copyright ORBIFLY December 2007 - Disclaimer

ORBIFLY MET'MAP TEAM :

Programming & Development : Alexandra Zaïnal
Concept & original design : Baudouin d'Aumeries
Assistance for programming : Marc-Olivier Méhu
Technical & hardware support : Manuel Goepfert

Contact : metmap@orbifly.com




SOURCES & CREDITS :

   NOAA